地図

経路データ

SID SEASON NUMBER BASIN SUBBASIN NAME ISO_TIME NATURE LAT LON WMO_WIND WMO_PRES WMO_AGENCY TRACK_TYPE DIST2LAND LANDFALL IFLAG USA_AGENCY USA_ATCF_ID USA_LAT USA_LON USA_RECORD USA_STATUS USA_WIND USA_PRES USA_SSHS USA_R34_NE USA_R34_SE USA_R34_SW USA_R34_NW USA_R50_NE USA_R50_SE USA_R50_SW USA_R50_NW USA_R64_NE USA_R64_SE USA_R64_SW USA_R64_NW USA_POCI USA_ROCI USA_RMW USA_EYE TOKYO_LAT TOKYO_LON TOKYO_GRADE TOKYO_WIND TOKYO_PRES TOKYO_R50_DIR TOKYO_R50_LONG TOKYO_R50_SHORT TOKYO_R30_DIR TOKYO_R30_LONG TOKYO_R30_SHORT TOKYO_LAND CMA_LAT CMA_LON CMA_CAT CMA_WIND CMA_PRES HKO_LAT HKO_LON HKO_CAT HKO_WIND HKO_PRES NEWDELHI_LAT NEWDELHI_LON NEWDELHI_GRADE NEWDELHI_WIND NEWDELHI_PRES NEWDELHI_CI NEWDELHI_DP NEWDELHI_POCI REUNION_LAT REUNION_LON REUNION_TYPE REUNION_WIND REUNION_PRES REUNION_TNUM REUNION_CI REUNION_RMW REUNION_R34_NE REUNION_R34_SE REUNION_R34_SW REUNION_R34_NW REUNION_R50_NE REUNION_R50_SE REUNION_R50_SW REUNION_R50_NW REUNION_R64_NE REUNION_R64_SE REUNION_R64_SW REUNION_R64_NW BOM_LAT BOM_LON BOM_TYPE BOM_WIND BOM_PRES BOM_TNUM BOM_CI BOM_RMW BOM_R34_NE BOM_R34_SE BOM_R34_SW BOM_R34_NW BOM_R50_NE BOM_R50_SE BOM_R50_SW BOM_R50_NW BOM_R64_NE BOM_R64_SE BOM_R64_SW BOM_R64_NW BOM_ROCI BOM_POCI BOM_EYE BOM_POS_METHOD BOM_PRES_METHOD NADI_LAT NADI_LON NADI_CAT NADI_WIND NADI_PRES WELLINGTON_LAT WELLINGTON_LON WELLINGTON_WIND WELLINGTON_PRES DS824_LAT DS824_LON DS824_STAGE DS824_WIND DS824_PRES TD9636_LAT TD9636_LON TD9636_STAGE TD9636_WIND TD9636_PRES TD9635_LAT TD9635_LON TD9635_WIND TD9635_PRES TD9635_ROCI NEUMANN_LAT NEUMANN_LON NEUMANN_CLASS NEUMANN_WIND NEUMANN_PRES MLC_LAT MLC_LON MLC_CLASS MLC_WIND MLC_PRES USA_GUST BOM_GUST BOM_GUST_PER REUNION_GUST REUNION_GUST_PER USA_SEAHGT USA_SEARAD_NE USA_SEARAD_SE USA_SEARAD_SW USA_SEARAD_NW STORM_SPEED STORM_DIR
1937065S09130 1937 13 SI WA NOT_NAMED 1937-03-05 23:30:00 NR -9.30000 129.800 bom main 204 204 ______O_______ -1 -9.30000 129.800 4 219
1937065S09130 1937 13 SI WA NOT_NAMED 1937-03-06 00:00:00 TS -9.33058 129.781 main 204 204 ______P__O____ -1 -9.34587 129.772 -9.30000 129.800 TC 6 211
1937065S09130 1937 13 SI WA NOT_NAMED 1937-03-06 03:00:00 TS -9.60194 129.613 main 212 184 ______P__P____ -1 -9.62015 129.602 -9.57463 129.630 TC 6 211
1937065S09130 1937 13 SI WA NOT_NAMED 1937-03-06 06:00:00 TS -9.87116 129.448 main 189 175 ______P__P____ -1 -9.89027 129.437 -9.84569 129.464 TC 6 211
1937065S09130 1937 13 SI WA NOT_NAMED 1937-03-06 09:00:00 TS -10.1312 129.294 main 175 156 ______P__P____ -1 -10.1527 129.281 -10.1096 129.306 TC 6 210
1937065S09130 1937 13 SI WA NOT_NAMED 1937-03-06 12:00:00 TS -10.3834 129.150 main 156 148 ______P__P____ -1 -10.4039 129.139 -10.3630 129.162 TC 6 208
1937065S09130 1937 13 SI WA NOT_NAMED 1937-03-06 15:00:00 TS -10.6213 129.025 main 156 143 ______P__P____ -1 -10.6404 129.015 -10.6022 129.034 TC 5 206
1937065S09130 1937 13 SI WA NOT_NAMED 1937-03-06 18:00:00 TS -10.8412 128.921 main 152 142 ______P__P____ -1 -10.8587 128.913 -10.8237 128.928 TC 5 203
1937065S09130 1937 13 SI WA NOT_NAMED 1937-03-06 21:00:00 TS -11.0397 128.844 main 152 148 ______P__P____ -1 -11.0553 128.839 -11.0242 128.849 TC 4 213
1937065S09130 1937 13 SI WA NOT_NAMED 1937-03-06 23:00:00 TS -11.1408 128.719 main 159 159 ______P__PO___ -1 -11.1726 128.806 -11.1443 128.813 TC -11.0000 128.000 7 5 240
1937065S09130 1937 13 SI WA NOT_NAMED 1937-03-06 23:30:00 TS -11.1508 128.646 bom main 167 167 ______O__PP___ -1 -11.2000 128.800 -11.1726 128.806 TC -11.0089 128.017 7 8 261
1937065S09130 1937 13 SI WA NOT_NAMED 1937-03-07 00:00:00 TS -11.1600 128.589 main 167 165 ______P__OP___ -1 -11.2267 128.795 -11.2000 128.800 TC -11.0178 128.033 7 2 215
1937065S09130 1937 13 SI WA NOT_NAMED 1937-03-07 03:00:00 TS -11.2633 128.568 main 165 163 ______P__PP___ -1 -11.3706 128.785 -11.3485 128.785 TC -11.0707 128.133 7 2 172
1937065S09130 1937 13 SI WA NOT_NAMED 1937-03-07 06:00:00 TS -11.3599 128.613 main 163 153 ______P__PP___ -1 -11.4879 128.806 -11.4701 128.800 TC -11.1219 128.233 7 2 148
1937065S09130 1937 13 SI WA NOT_NAMED 1937-03-07 09:00:00 TS -11.4385 128.676 main 153 152 ______P__PP___ -1 -11.5795 128.852 -11.5660 128.842 TC -11.1701 128.333 7 2 138
1937065S09130 1937 13 SI WA NOT_NAMED 1937-03-07 11:00:00 TS -11.4811 128.726 main 152 141 ______P__PO___ -1 -11.6271 128.895 -11.6162 128.883 TC -11.2000 128.400 7 2 129
1937065S09130 1937 13 SI WA NOT_NAMED 1937-03-07 12:00:00 TS -11.4994 128.753 main 141 141 ______P__PP___ -1 -11.6469 128.919 -11.6373 128.907 TC -11.2141 128.433 7 2 120
1937065S09130 1937 13 SI WA NOT_NAMED 1937-03-07 15:00:00 TS -11.5427 128.843 main 141 130 ______P__PP___ -1 -11.6910 129.004 -11.6852 128.989 TC -11.2520 128.537 7 2 110
1937065S09130 1937 13 SI WA NOT_NAMED 1937-03-07 18:00:00 TS -11.5682 128.947 main 131 109 ______P__PP___ -1 -11.7130 129.102 -11.7108 129.085 TC -11.2808 128.653 7 2 99
1937065S09130 1937 13 SI WA NOT_NAMED 1937-03-07 21:00:00 TS -11.5756 129.063 main 109 109 ______P__PP___ -1 -11.7142 129.208 -11.7154 129.190 TC -11.2973 128.791 7 2 91
1937065S09130 1937 13 SI WA NOT_NAMED 1937-03-07 23:00:00 TS -11.5704 129.148 main 109 98 ______P__PO___ -1 -11.7039 129.282 -11.7073 129.263 TC -11.3000 128.900 7 3 86
1937065S09130 1937 13 SI WA NOT_NAMED 1937-03-07 23:30:00 TS -11.5676 129.171 bom main 98 98 ______O__PP___ -1 -11.7000 129.300 -11.7039 129.282 TC -11.2989 128.932 7 3 80
1937065S09130 1937 13 SI WA NOT_NAMED 1937-03-08 00:00:00 TS -11.5637 129.192 main 98 87 ______P__OP___ -1 -11.6940 129.312 -11.7000 129.300 TC -11.2972 128.965 7 3 74
1937065S09130 1937 13 SI WA NOT_NAMED 1937-03-08 03:00:00 TS -11.5245 129.325 main 87 65 ______P__PP___ -1 -11.6392 129.386 -11.6570 129.403 TC -11.2772 129.185 7 3 70
1937065S09130 1937 13 SI WA NOT_NAMED 1937-03-08 06:00:00 TS -11.4651 129.468 main 65 55 ______P__PP___ -1 -11.5598 129.466 -11.5885 129.515 TC -11.2471 129.423 7 3 66
1937065S09130 1937 13 SI WA NOT_NAMED 1937-03-08 09:00:00 TS -11.3946 129.615 main 55 45 ______P__PP___ -1 -11.4651 129.556 -11.5026 129.633 TC -11.2163 129.657 7 3 64
1937065S09130 1937 13 SI WA NOT_NAMED 1937-03-08 11:00:00 TS -11.3460 129.712 main 49 39 ______P__PO___ -1 -11.3983 129.622 -11.4397 129.714 TC -11.2000 129.800 7 3 63
1937065S09130 1937 13 SI WA NOT_NAMED 1937-03-08 12:00:00 TS -11.3217 129.758 main 39 31 ______P__PP___ -1 -11.3648 129.657 -11.4075 129.755 TC -11.1929 129.864 7 3 63
1937065S09130 1937 13 SI WA NOT_NAMED 1937-03-08 15:00:00 TS -11.2519 129.896 main 31 31 ______P__PP___ -1 -11.2684 129.772 -11.3115 129.875 TC -11.1757 130.040 7 3 64
1937065S09130 1937 13 SI WA NOT_NAMED 1937-03-08 18:00:00 TS -11.1925 130.030 main 31 22 ______P__PP___ -1 -11.1854 129.904 -11.2228 129.992 TC -11.1694 130.194 7 3 69
1937065S09130 1937 13 SI WA NOT_NAMED 1937-03-08 21:00:00 TS -11.1517 130.161 main 22 22 ______P__PP___ -1 -11.1255 130.056 -11.1495 130.101 TC -11.1802 130.325 7 3 76
1937065S09130 1937 13 SI WA NOT_NAMED 1937-03-08 23:00:00 TS -11.1388 130.246 main 33 31 ______P__PO___ -1 -11.1030 130.170 -11.1134 130.168 TC -11.2000 130.400 7 3 82
1937065S09130 1937 13 SI WA NOT_NAMED 1937-03-08 23:30:00 TS -11.1378 130.267 994 bom main 31 31 ______O__PP___ -1 -11.1000 130.200 994 -11.1063 130.184 TC -11.2071 130.418 7 3 87
1937065S09130 1937 13 SI WA NOT_NAMED 1937-03-09 00:00:00 TS -11.1368 130.291 main 31 15 ______P__OP___ -1 -11.0954 130.238 -11.1000 130.200 TC 40 994 -11.2149 130.435 7 2 100
1937065S09130 1937 13 SI WA NOT_NAMED 1937-03-09 03:00:00 TS -11.1602 130.400 main 15 11 ______P__PP___ -1 -11.0822 130.475 -11.1223 130.201 TC -11.2762 130.524 7 2 110
1937065S09130 1937 13 SI WA NOT_NAMED 1937-03-09 06:00:00 TS -11.2108 130.491 main 11 0 ______P__PP___ -1 -11.1052 130.704 -11.1721 130.175 TC -11.3551 130.595 7 2 130
1937065S09130 1937 13 SI WA NOT_NAMED 1937-03-09 09:00:00 TS -11.2898 130.556 main 0 0 ______P__PP___ -1 -11.1811 130.879 -11.2462 130.130 TC -11.4421 130.658 7 2 143
1937065S09130 1937 13 SI WA NOT_NAMED 1937-03-09 09:30:00 TS -11.3058 130.563 bom main 0 0 ______O__PP___ -1 -11.2000 130.900 -11.2607 130.121 TC -11.4567 130.668 7 2 171
1937065S09130 1937 13 SI WA NOT_NAMED 1937-03-09 11:00:00 TS -11.3575 130.581 main 0 0 ______P__PO___ -1 -11.2652 130.952 -11.3074 130.092 TC -11.5000 130.700 7 2 0
1937065S09130 1937 13 SI WA NOT_NAMED 1937-03-09 12:00:00 TS -11.3944 130.591 main 0 0 ______P__PP___ -1 -11.3170 130.975 -11.3412 130.073 TC -11.5250 130.724 7 2 0
1937065S09130 1937 13 SI WA NOT_NAMED 1937-03-09 15:00:00 TS -11.5179 130.602 bom main 0 0 ______O__PP___ -1 -11.5000 131.000 -11.4536 130.011 TC -11.6000 130.795 7 3 0
1937065S09130 1937 13 SI WA NOT_NAMED 1937-03-09 18:00:00 TS -11.6572 130.595 main 0 0 ______P__PP___ -1 -11.7165 130.963 -11.5802 129.954 TC -11.6750 130.867 7 3 183
1937065S09130 1937 13 SI WA NOT_NAMED 1937-03-09 21:00:00 TS -11.8028 130.577 main 0 0 ______P__PP___ -1 -11.9408 130.878 -11.7176 129.909 TC -11.7500 130.944 7 3 0
1937065S09130 1937 13 SI WA NOT_NAMED 1937-03-09 23:00:00 TS -11.8950 130.568 main 11 11 ______P__PO___ -1 -12.0716 130.815 -11.8135 129.890 TC -11.8000 131.000 7 3 0
1937065S09130 1937 13 SI WA NOT_NAMED 1937-03-09 23:30:00 TS -11.9172 130.567 bom main 11 11 ______O__PP___ -1 -12.1000 130.800 -11.8379 129.887 TC -11.8137 131.013 7 2 0
1937065S09130 1937 13 SI WA NOT_NAMED 1937-03-10 00:00:00 TS -11.9363 130.568 main 11 11 ______P__PP___ -1 -12.1191 130.793 -11.8624 129.884 TC -11.8274 131.026 7 2 0
1937065S09130 1937 13 SI WA NOT_NAMED 1937-03-10 03:00:00 TS -12.0368 130.587 main 22 22 ______P__PP___ -1 -12.1882 130.765 -12.0114 129.887 TC -11.9108 131.109 7 2 161
1937065S09130 1937 13 SI WA NOT_NAMED 1937-03-10 06:00:00 TS -12.1200 130.625 main 33 24 ______P__PP___ -1 -12.2082 130.745 -12.1611 129.926 TC -11.9909 131.203 7 2 151
1937065S09130 1937 13 SI WA NOT_NAMED 1937-03-10 09:00:00 TS -12.1959 130.678 main 24 24 ______P__PP___ -1 -12.2181 130.713 -12.3082 130.008 TC -12.0614 131.314 7 2 143
1937065S09130 1937 13 SI WA NOT_NAMED 1937-03-10 11:00:00 TS -12.2473 130.722 main 24 15 ______P__PO___ -1 -12.2386 130.675 -12.4032 130.092 TC -12.1000 131.400 7 2 136
1937065S09130 1937 13 SI WA NOT_NAMED 1937-03-10 12:00:00 TS -12.2706 130.746 main 15 11 ______P__PP___ -1 -12.2573 130.649 -12.4494 130.143 TC -12.1052 131.445 7 2 140
1937065S09130 1937 13 SI WA NOT_NAMED 1937-03-10 13:30:00 TS -12.3079 130.783 955 bom main 11 11 ______O__PP___ -1 -12.3000 130.600 955 4 -12.5167 130.232 TC -12.1072 131.516 7 2 136
1937065S09130 1937 13 SI WA NOT_NAMED 1937-03-10 15:00:00 TS -12.3454 130.817 main 11 0 ______P__PP___ -1 -12.3495 130.521 955 -12.5811 130.337 TC -12.1056 131.594 7 2 133
1937065S09130 1937 13 SI WA NOT_NAMED 1937-03-10 15:50:00 TS -12.3734 130.847 955 bom main 0 0 ______O__PP___ -1 -12.4000 130.500 955 -12.6156 130.403 TC -12.1047 131.639 7 4 132
1937065S09130 1937 13 SI WA NOT_NAMED 1937-03-10 18:00:00 TS -12.4842 130.976 main 0 0 ______P__OP___ -1 -12.6449 130.562 965 -12.7000 130.600 TC -12.1078 131.765 7 5 129
1937065S09130 1937 13 SI WA NOT_NAMED 1937-03-10 18:30:00 TS -12.5088 131.016 bom main 0 0 ______I__PP___ -1 -12.7000 130.600 967 -12.7160 130.653 TC -12.1105 131.796 7 6 111
1937065S09130 1937 13 SI WA NOT_NAMED 1937-03-10 21:00:00 TS -12.5931 131.262 main 0 0 ______P__PP___ -1 -12.8402 130.893 979 -12.7962 130.936 TC -12.1428 131.959 7 7 107
1937065S09130 1937 13 SI WA NOT_NAMED 1937-03-10 23:00:00 TS -12.6511 131.498 main 0 0 ______P__PO___ -1 -12.8894 131.217 989 -12.8638 131.177 TC -12.2000 132.100 7 7 105
1937065S09130 1937 13 SI WA NOT_NAMED 1937-03-10 23:30:00 TS -12.6682 131.559 992 bom main 0 0 ______O__PP___ -1 -12.9000 131.300 992 -12.8817 131.239 TC -12.2231 132.138 7 6 115
1937065S09130 1937 13 SI WA NOT_NAMED 1937-03-11 00:00:00 TS -12.6953 131.595 main 0 0 ______P__OP___ -1 -12.9114 131.382 -12.9000 131.300 TC -12.2482 132.177 7 7 116
1937065S09130 1937 13 SI WA NOT_NAMED 1937-03-11 03:00:00 TS -12.8490 131.939 main 0 0 ______P__PP___ -1 -13.0000 131.846 -13.0207 131.667 TC -12.4369 132.426 7 8 117
1937065S09130 1937 13 SI WA NOT_NAMED 1937-03-11 06:00:00 TS -13.0386 132.282 main 0 0 ______P__PP___ -1 -13.1196 132.268 -13.1584 132.032 TC -12.6722 132.687 7 8 121
1937065S09130 1937 13 SI WA NOT_NAMED 1937-03-11 09:00:00 TS -13.2513 132.623 main 0 0 ______P__PP___ -1 -13.2658 132.652 -13.3104 132.395 TC -12.9291 132.942 7 8 122
1937065S09130 1937 13 SI WA NOT_NAMED 1937-03-11 11:00:00 TS -13.3904 132.853 main 0 0 ______P__PO___ -1 -13.3757 132.892 -13.4186 132.637 TC -13.1000 133.100 7 8 122
1937065S09130 1937 13 SI WA NOT_NAMED 1937-03-11 12:00:00 TS -13.4537 132.957 main 0 0 ______P__PP___ -1 -13.4339 133.007 -13.4744 132.757 TC -13.1525 133.137 7 7 123
1937065S09130 1937 13 SI WA NOT_NAMED 1937-03-11 15:00:00 TS -13.6487 133.262 main 0 0 ______P__PP___ -1 -13.6195 133.337 -13.6479 133.118 TC -13.3008 133.219 7 7 124
1937065S09130 1937 13 SI WA NOT_NAMED 1937-03-11 18:00:00 TS -13.8620 133.576 main 0 0 ______P__PP___ -1 -13.8181 133.650 -13.8283 133.479 TC -13.4796 133.325 7 8 126
1937065S09130 1937 13 SI WA NOT_NAMED 1937-03-11 21:00:00 TS -14.1127 133.921 main 0 0 ______P__PP___ -1 -14.0248 133.952 -14.0132 133.839 TC -13.7459 133.545 7 9 128
1937065S09130 1937 13 SI WA NOT_NAMED 1937-03-11 23:00:00 TS -14.3272 134.200 main 0 0 ______P__PO___ -1 -14.1649 134.151 -14.1377 134.080 TC -14.0000 133.800 7 11 130
1937065S09130 1937 13 SI WA NOT_NAMED 1937-03-11 23:30:00 TS -14.4209 134.296 996 bom main 0 0 ______O__PP___ -1 -14.2000 134.200 996 -14.1688 134.140 TC -14.0848 133.887 7 18 137
1937065S09130 1937 13 SI WA NOT_NAMED 1937-03-12 00:00:00 TS -14.5444 134.414 main 0 0 _________OP___ -1 -14.2000 134.200 TC -14.1748 133.981 7 17 132
1937065S09130 1937 13 SP EA NOT_NAMED 1937-03-12 03:00:00 TS -15.0959 135.075 main 0 0 __________P___ -1 TC -14.8022 134.665 7 18 130
1937065S09130 1937 13 SP EA NOT_NAMED 1937-03-12 06:00:00 TS -15.6638 135.808 main 0 0 __________P___ -1 TC -15.5207 135.510 7 19 128
1937065S09130 1937 13 SP EA NOT_NAMED 1937-03-12 09:00:00 TS -16.2460 136.600 main 0 0 __________P___ -1 TC -16.2488 136.452 7 19 127
1937065S09130 1937 13 SP EA NOT_NAMED 1937-03-12 11:00:00 TS -16.6200 137.141 main 0 0 __________O___ -1 TC -16.7000 137.100 7 19 125
1937065S09130 1937 13 SP EA NOT_NAMED 1937-03-12 12:00:00 TS -16.7924 137.416 main 0 0 __________P___ -1 TC -16.8956 137.430 7 19 122
1937065S09130 1937 13 SP EA NOT_NAMED 1937-03-12 15:00:00 TS -17.2895 138.258 main 0 0 __________P___ -1 TC -17.4426 138.462 7 19 121
1937065S09130 1937 13 SP EA NOT_NAMED 1937-03-12 18:00:00 TS -17.7522 139.089 main 0 0 __________P___ -1 TC -17.9281 139.481 7 18 120
1937065S09130 1937 13 SP EA NOT_NAMED 1937-03-12 21:00:00 TS -18.1759 139.856 main 0 0 __________P___ -1 TC -18.3517 140.395 7 16 121
1937065S09130 1937 13 SP EA NOT_NAMED 1937-03-12 23:00:00 TS -18.4350 140.305 main 0 0 __________O___ -1 TC -18.6000 140.900 7 14 122
1937065S09130 1937 13 SP EA NOT_NAMED 1937-03-13 00:00:00 TS -18.5592 140.498 main 0 0 __________P___ -1 -18.7184 141.096 7 11 125
1937065S09130 1937 13 SP EA NOT_NAMED 1937-03-13 03:00:00 TS -18.8655 140.966 main 0 0 __________P___ -1 -19.0318 141.545 7 10 126
1937065S09130 1937 13 SP EA NOT_NAMED 1937-03-13 06:00:00 TS -19.1359 141.340 main 0 0 __________P___ -1 -19.2993 141.843 7 8 128
1937065S09130 1937 13 SP EA NOT_NAMED 1937-03-13 09:00:00 TS -19.3875 141.663 main 0 0 __________P___ -1 -19.5420 142.062 7 8 130
1937065S09130 1937 13 SP EA NOT_NAMED 1937-03-13 11:00:00 TS -19.5532 141.870 main 0 0 __________O___ -1 -19.7000 142.200 7 8 130
1937065S09130 1937 13 SP EA NOT_NAMED 1937-03-13 12:00:00 TS -19.6360 141.981 main 0 0 __________P___ -1 -19.7778 142.287 7 8 129
1937065S09130 1937 13 SP EA NOT_NAMED 1937-03-13 15:00:00 TS -19.8854 142.307 main 0 0 __________P___ -1 -20.0022 142.530 7 8 130
1937065S09130 1937 13 SP EA NOT_NAMED 1937-03-13 18:00:00 TS -20.1511 142.639 main 0 0 __________P___ -1 -20.2330 142.778 7 9 131
1937065S09130 1937 13 SP EA NOT_NAMED 1937-03-13 21:00:00 TS -20.4520 143.000 main 0 0 __________P___ -1 -20.4953 143.066 7 10 132
1937065S09130 1937 13 SP EA NOT_NAMED 1937-03-13 23:00:00 TS -20.6815 143.270 main 0 0 __________O___ -1 -20.7000 143.300 7 11 132
1937065S09130 1937 13 SP EA NOT_NAMED 1937-03-14 00:00:00 TS -20.8098 143.422 main 0 0 __________P___ -1 -20.8197 143.445 7 12 132
1937065S09130 1937 13 SP EA NOT_NAMED 1937-03-14 03:00:00 TS -21.2348 143.921 main 0 0 __________P___ -1 -21.2176 143.936 7 13 133
1937065S09130 1937 13 SP EA NOT_NAMED 1937-03-14 06:00:00 TS -21.7070 144.466 main 0 0 __________P___ -1 -21.6543 144.482 7 14 133
1937065S09130 1937 13 SP EA NOT_NAMED 1937-03-14 09:00:00 TS -22.2097 145.035 main 0 0 __________P___ -1 -22.1045 145.040 7 15 134
1937065S09130 1937 13 SP EA NOT_NAMED 1937-03-14 11:00:00 TS -22.5535 145.417 main 0 0 __________O___ -1 -22.4000 145.400 7 15 134
1937065S09130 1937 13 SP EA NOT_NAMED 1937-03-14 12:00:00 TS -22.7177 145.599 main 0 0 __________P___ -1 -22.5265 145.558 7 14 135
1937065S09130 1937 13 SP EA NOT_NAMED 1937-03-14 15:00:00 TS -23.2149 146.146 main 0 0 __________P___ -1 -22.8968 146.016 7 14 135
1937065S09130 1937 13 SP EA NOT_NAMED 1937-03-14 18:00:00 TS -23.7269 146.697 main 0 0 __________P___ -1 -23.2751 146.457 7 14 135
1937065S09130 1937 13 SP EA NOT_NAMED 1937-03-14 21:00:00 TS -24.1815 147.204 main 0 0 __________P___ -1 -23.6897 146.898 7 12 134
1937065S09130 1937 13 SP EA NOT_NAMED 1937-03-14 23:00:00 TS -24.4264 147.490 main 0 0 __________O___ -1 -24.0000 147.200 7 8 128
1937065S09130 1937 13 SP EA NOT_NAMED 1937-03-15 00:00:00 TS -24.4299 147.560 main 0 0 __________P___ -1 -24.1624 147.376 7 7 124
1937065S09130 1937 13 SP EA NOT_NAMED 1937-03-15 03:00:00 NR -24.6890 147.920 main 0 0 __________P___ -1 -24.6890 147.920 7 12 136
1937065S09130 1937 13 SP EA NOT_NAMED 1937-03-15 06:00:00 NR -25.2767 148.455 main 0 0 __________P___ -1 -25.2767 148.455 7 15 143
1937065S09130 1937 13 SP EA NOT_NAMED 1937-03-15 09:00:00 NR -25.9283 148.935 main 0 0 __________P___ -1 -25.9283 148.935 7 16 149
1937065S09130 1937 13 SP EA NOT_NAMED 1937-03-15 11:00:00 NR -26.4000 149.200 main 0 0 __________O___ -1 -26.4000 149.200 7 16 155
1937065S09130 1937 13 SP EA NOT_NAMED 1937-03-15 12:00:00 NR -26.6473 149.311 main 0 0 __________P___ -1 -26.6473 149.311 7 16 162
1937065S09130 1937 13 SP EA NOT_NAMED 1937-03-15 15:00:00 NR -27.4297 149.568 main 0 0 __________P___ -1 -27.4297 149.568 7 17 167
1937065S09130 1937 13 SP EA NOT_NAMED 1937-03-15 18:00:00 NR -28.2596 149.734 main 0 0 __________P___ -1 -28.2596 149.734 7 17 172
1937065S09130 1937 13 SP EA NOT_NAMED 1937-03-15 21:00:00 NR -29.1193 149.842 main 0 0 __________P___ -1 -29.1193 149.842 7 17 174
1937065S09130 1937 13 SP EA NOT_NAMED 1937-03-15 23:00:00 NR -29.7000 149.900 main 0 __________O___ -1 -29.7000 149.900 7 18 175

IBTrACS Databaseについて

本データベースは、米国NOAAが公開する1842年以降の世界の熱帯低気圧のベストトラックデータアーカイブInternational Best Track Archive for Climate Stewardship (IBTrACS)を、ウェブで閲覧しやすい形式に変換したものです。

最終更新日:2021-12-08